Time;durP1;ratioP1;P1;durP2;ratioP2;P2;SDS_P1;SDS_P2;PMS_P1;PMS_P2;Temp;Humidity;BMP_temperature;BMP_pressure;BME280_temperature;BME280_humidity;BME280_pressure;Samples;Min_cycle;Max_cycle;Signal;HPM_P1;HPM_P2
2021/05/28 00:01:35;;;;;;;14.85;7.28;;;16.60;99.90;;;;;;4879158;29;20025;-79
2021/05/28 00:04:02;;;;;;;11.80;7.10;;;16.60;99.90;;;;;;4879092;29;20172;-79
2021/05/28 00:06:28;;;;;;;10.27;6.95;;;16.60;99.90;;;;;;4878956;29;20480;-79
2021/05/28 00:08:55;;;;;;;13.27;7.10;;;16.50;99.90;;;;;;4878935;29;20025;-79
2021/05/28 00:11:20;;;;;;;12.82;7.03;;;16.40;99.90;;;;;;4879026;29;20057;-79
2021/05/28 00:14:04;;;;;;;12.65;6.95;;;16.40;99.90;;;;;;4862452;29;20056;-79
2021/05/28 00:16:34;;;;;;;13.77;7.63;;;16.30;99.90;;;;;;4864837;29;20068;-78
2021/05/28 00:18:59;;;;;;;10.02;7.13;;;16.20;99.90;;;;;;4854586;29;20052;-79
2021/05/28 00:21:25;;;;;;;9.40;7.60;;;16.20;99.90;;;;;;4867952;29;20455;-78
2021/05/28 00:23:51;;;;;;;11.98;7.35;;;16.20;99.90;;;;;;4876946;29;20400;-79
2021/05/28 00:26:16;;;;;;;9.65;6.93;;;16.20;99.90;;;;;;4880404;29;20033;-78
2021/05/28 00:28:47;;;;;;;10.93;7.22;;;16.30;99.90;;;;;;4881180;29;20048;-79
2021/05/28 00:31:13;;;;;;;8.50;6.47;;;16.30;99.90;;;;;;4881452;29;20025;-79
2021/05/28 00:33:39;;;;;;;9.52;5.93;;;16.30;99.90;;;;;;4881381;29;20090;-79
2021/05/28 00:36:04;;;;;;;8.93;6.57;;;16.30;99.90;;;;;;4881294;29;20033;-79
2021/05/28 00:38:30;;;;;;;9.57;6.25;;;16.30;99.90;;;;;;4881171;29;20068;-79
2021/05/28 00:40:59;;;;;;;12.68;6.10;;;16.30;99.90;;;;;;4879923;29;20506;-78
2021/05/28 00:43:25;;;;;;;8.02;5.80;;;16.30;99.90;;;;;;4881081;29;20035;-79
2021/05/28 00:45:51;;;;;;;8.43;5.53;;;16.30;99.90;;;;;;4881165;29;20033;-79
2021/05/28 00:48:17;;;;;;;8.20;5.70;;;16.30;99.90;;;;;;4865492;29;20033;-79
2021/05/28 00:50:43;;;;;;;5.53;5.03;;;16.30;99.90;;;;;;4862315;29;20022;-78
2021/05/28 00:53:08;;;;;;;5.80;5.28;;;16.20;99.90;;;;;;4845769;29;20457;-79
2021/05/28 00:55:35;;;;;;;5.53;4.95;;;16.30;99.90;;;;;;4862371;29;20037;-79
2021/05/28 00:58:01;;;;;;;6.57;5.05;;;16.20;99.90;;;;;;4862202;29;20082;-78
2021/05/28 01:00:28;;;;;;;6.15;4.47;;;16.20;99.90;;;;;;4862178;29;20033;-78
2021/05/28 01:02:57;;;;;;;6.55;4.53;;;16.20;99.90;;;;;;4845491;29;20120;-79
2021/05/28 01:05:23;;;;;;;5.45;4.40;;;16.20;99.90;;;;;;4862344;29;20053;-79
2021/05/28 01:07:49;;;;;;;4.30;3.30;;;16.30;99.90;;;;;;4859429;29;20044;-79
2021/05/28 01:10:15;;;;;;;4.00;3.25;;;16.30;99.90;;;;;;4845565;29;20052;-79
2021/05/28 01:12:42;;;;;;;4.82;3.63;;;16.40;99.90;;;;;;4861870;29;20029;-79
2021/05/28 01:15:09;;;;;;;3.80;3.47;;;16.50;99.90;;;;;;4861943;29;20026;-78
2021/05/28 01:17:35;;;;;;;3.85;3.53;;;16.40;99.90;;;;;;4861893;29;20056;-79
2021/05/28 01:20:04;;;;;;;2.90;2.70;;;16.50;99.90;;;;;;4861892;29;20030;-79
2021/05/28 01:22:29;;;;;;;3.63;2.90;;;16.50;99.90;;;;;;4861596;29;20120;-79
2021/05/28 01:24:55;;;;;;;4.28;2.40;;;16.40;99.90;;;;;;4845337;29;20118;-79
2021/05/28 01:27:21;;;;;;;2.70;2.50;;;16.40;99.90;;;;;;4861268;29;20116;-79
2021/05/28 01:29:47;;;;;;;4.78;3.05;;;16.30;99.90;;;;;;4861647;29;20245;-79
2021/05/28 01:32:14;;;;;;;3.28;2.63;;;16.40;99.90;;;;;;4861827;29;20033;-79
2021/05/28 01:34:40;;;;;;;3.70;2.70;;;16.40;99.90;;;;;;4861744;29;20033;-79
2021/05/28 01:37:06;;;;;;;3.63;2.78;;;16.40;99.90;;;;;;4844845;29;20026;-78
2021/05/28 01:39:32;;;;;;;3.30;3.00;;;16.40;99.90;;;;;;4861619;29;20536;-79
2021/05/28 01:41:58;;;;;;;3.13;2.92;;;16.40;99.90;;;;;;4845215;29;20037;-79
2021/05/28 01:44:24;;;;;;;6.07;3.08;;;16.30;99.90;;;;;;4861499;29;20029;-78
2021/05/28 01:46:50;;;;;;;4.55;4.00;;;16.30;99.90;;;;;;4861446;29;20037;-79
2021/05/28 01:49:16;;;;;;;5.20;3.35;;;16.30;99.90;;;;;;4861683;29;20026;-79
2021/05/28 01:51:51;;;;;;;4.95;3.30;;;16.40;99.90;;;;;;4861364;29;20032;-79
2021/05/28 01:54:18;;;;;;;5.43;3.08;;;16.40;99.90;;;;;;4861180;29;20510;-79
2021/05/28 01:56:46;;;;;;;5.95;3.42;;;16.40;99.90;;;;;;4861455;29;20033;-79
2021/05/28 01:59:17;;;;;;;4.80;4.40;;;16.40;99.90;;;;;;4861354;29;20082;-79
2021/05/28 02:01:46;;;;;;;5.43;3.28;;;16.40;99.90;;;;;;4861258;29;20036;-79
2021/05/28 02:04:11;;;;;;;4.57;4.03;;;16.40;99.90;;;;;;4861260;29;20117;-79
2021/05/28 02:06:37;;;;;;;4.65;4.25;;;16.40;99.90;;;;;;4861074;29;20122;-78
2021/05/28 02:09:04;;;;;;;4.40;4.07;;;16.40;99.90;;;;;;4861062;29;20029;-79
2021/05/28 02:11:29;;;;;;;4.88;3.53;;;16.40;99.90;;;;;;4861204;29;20026;-78
2021/05/28 02:13:55;;;;;;;4.35;3.85;;;16.40;99.90;;;;;;4860897;29;20082;-79
2021/05/28 02:16:21;;;;;;;6.30;4.35;;;16.40;99.90;;;;;;4861353;29;20116;-78
2021/05/28 02:18:50;;;;;;;5.18;4.28;;;16.40;99.90;;;;;;4875134;29;20033;-79
2021/05/28 02:21:16;;;;;;;4.72;4.28;;;16.40;99.90;;;;;;4863828;29;20441;-79
2021/05/28 02:23:42;;;;;;;6.28;4.95;;;16.30;99.90;;;;;;4880340;29;20085;-79
2021/05/28 02:26:07;;;;;;;6.47;4.30;;;16.30;99.90;;;;;;4880455;29;20503;-79
2021/05/28 02:28:33;;;;;;;5.05;4.57;;;16.30;99.90;;;;;;4880508;29;20077;-79
2021/05/28 02:30:59;;;;;;;7.88;4.68;;;16.30;99.90;;;;;;4880426;29;20056;-79
2021/05/28 02:33:24;;;;;;;5.00;4.50;;;16.20;99.90;;;;;;4863124;29;20025;-78
2021/05/28 02:35:50;;;;;;;8.80;4.50;;;16.20;99.90;;;;;;4879659;29;20036;-79
2021/05/28 02:38:19;;;;;;;7.32;4.72;;;16.20;99.90;;;;;;4862438;29;20408;-79
2021/05/28 02:40:44;;;;;;;4.57;3.95;;;16.10;99.90;;;;;;4861900;29;20582;-79
2021/05/28 02:43:10;;;;;;;5.07;4.57;;;16.20;99.90;;;;;;4879249;29;20139;-79
2021/05/28 02:45:36;;;;;;;5.25;4.70;;;16.10;99.90;;;;;;4879093;29;20488;-78
2021/05/28 02:48:02;;;;;;;6.38;5.10;;;16.10;99.90;;;;;;4865513;29;20026;-78
2021/05/28 02:50:32;;;;;;;7.50;5.40;;;16.00;99.90;;;;;;4862302;29;20036;-79
2021/05/28 02:53:01;;;;;;;5.22;4.45;;;16.00;99.90;;;;;;4862405;29;20025;-79
2021/05/28 02:55:29;;;;;;;5.97;5.10;;;16.00;99.90;;;;;;4862190;29;20564;-79
2021/05/28 02:57:54;;;;;;;10.52;5.43;;;16.00;99.90;;;;;;4879028;29;20043;-79
2021/05/28 03:00:22;;;;;;;8.45;5.50;;;16.00;99.90;;;;;;4878066;29;20386;-79
2021/05/28 03:02:49;;;;;;;6.00;5.15;;;16.00;99.90;;;;;;4862321;29;20031;-79
2021/05/28 03:05:17;;;;;;;6.18;5.50;;;16.00;99.90;;;;;;4878880;29;20049;-78
2021/05/28 03:07:43;;;;;;;7.10;5.30;;;15.90;99.90;;;;;;4878808;29;20040;-79
2021/05/28 03:10:11;;;;;;;4.97;4.53;;;15.90;99.90;;;;;;4878730;29;20021;-79
2021/05/28 03:12:37;;;;;;;6.38;5.28;;;15.90;99.90;;;;;;4878960;29;20064;-78
2021/05/28 03:15:04;;;;;;;7.05;5.32;;;15.90;99.90;;;;;;4861849;29;20080;-78
2021/05/28 03:17:30;;;;;;;9.07;5.63;;;15.90;99.90;;;;;;4862004;29;20029;-78
2021/05/28 03:19:56;;;;;;;7.13;5.38;;;15.90;99.90;;;;;;4861928;29;20037;-79
2021/05/28 03:22:32;;;;;;;6.13;5.60;;;15.90;99.90;;;;;;4861947;29;20033;-79
2021/05/28 03:25:05;;;;;;;6.93;5.82;;;15.90;99.90;;;;;;4878523;29;20021;-79
2021/05/28 03:27:31;;;;;;;7.80;5.38;;;15.80;99.90;;;;;;4861672;29;20064;-79
2021/05/28 03:29:57;;;;;;;6.18;5.55;;;15.90;99.90;;;;;;4861830;29;20029;-78
2021/05/28 03:32:23;;;;;;;8.73;5.63;;;15.80;99.90;;;;;;4861777;29;20037;-79
2021/05/28 03:34:49;;;;;;;9.80;6.25;;;15.80;99.90;;;;;;4878621;29;20021;-79
2021/05/28 03:37:15;;;;;;;9.07;6.20;;;15.80;99.90;;;;;;4860544;29;20041;-79
2021/05/28 03:39:44;;;;;;;7.47;6.18;;;15.80;99.90;;;;;;4859932;29;20449;-79
2021/05/28 03:42:10;;;;;;;12.23;7.05;;;15.80;99.90;;;;;;4843297;29;20094;-79
2021/05/28 03:44:36;;;;;;;10.20;5.82;;;15.80;99.90;;;;;;4859925;29;20523;-78
2021/05/28 03:47:02;;;;;;;8.18;6.07;;;15.70;99.90;;;;;;4852034;29;20480;-74
2021/05/28 03:49:27;;;;;;;8.90;5.38;;;15.80;99.90;;;;;;4860052;29;20026;-74
2021/05/28 03:51:53;;;;;;;10.05;4.97;;;15.80;99.90;;;;;;4865210;29;20026;-79
2021/05/28 03:54:20;;;;;;;8.98;6.22;;;15.80;99.90;;;;;;4850041;29;20025;-79
2021/05/28 03:56:46;;;;;;;7.07;6.22;;;15.90;99.90;;;;;;4866737;29;20032;-79
2021/05/28 03:59:12;;;;;;;11.23;5.60;;;15.90;99.90;;;;;;4866617;29;20029;-78
2021/05/28 04:01:37;;;;;;;7.82;5.68;;;15.90;99.90;;;;;;4866553;29;20033;-79
2021/05/28 04:04:04;;;;;;;6.28;5.28;;;15.90;99.90;;;;;;4849337;29;20036;-79
2021/05/28 04:06:29;;;;;;;7.45;5.90;;;15.90;99.90;;;;;;4848938;29;20153;-79
2021/05/28 04:08:55;;;;;;;6.20;5.40;;;16.00;99.90;;;;;;4865865;29;20084;-79
2021/05/28 04:11:21;;;;;;;5.90;5.25;;;16.00;99.90;;;;;;4849218;29;20021;-79
2021/05/28 04:13:47;;;;;;;6.75;4.78;;;15.90;99.90;;;;;;4865717;29;20035;-79
2021/05/28 04:16:13;;;;;;;10.95;4.90;;;16.00;99.90;;;;;;4865775;29;20030;-79
2021/05/28 04:18:38;;;;;;;14.13;5.43;;;16.00;99.90;;;;;;4865780;29;20042;-79
2021/05/28 04:21:04;;;;;;;4.60;4.18;;;16.00;99.90;;;;;;4865413;29;20029;-79
2021/05/28 04:23:30;;;;;;;5.13;4.43;;;16.10;99.90;;;;;;4848983;29;20025;-79
2021/05/28 04:25:56;;;;;;;5.07;4.57;;;16.10;99.90;;;;;;4848975;29;20041;-79
2021/05/28 04:28:22;;;;;;;6.30;4.55;;;16.10;99.90;;;;;;4865448;29;20064;-79
2021/05/28 04:30:47;;;;;;;8.93;4.88;;;16.20;99.90;;;;;;4848929;29;20112;-79
2021/05/28 04:33:13;;;;;;;5.13;4.63;;;16.20;99.90;;;;;;4849056;29;20536;-79
2021/05/28 04:35:39;;;;;;;4.13;3.83;;;16.20;99.90;;;;;;4865517;29;20083;-79
2021/05/28 04:38:05;;;;;;;5.65;3.95;;;16.30;99.90;;;;;;4848954;29;20101;-79
2021/05/28 04:40:31;;;;;;;6.03;3.85;;;16.30;99.90;;;;;;4848621;29;20117;-79
2021/05/28 04:42:58;;;;;;;7.63;4.30;;;16.30;99.90;;;;;;4865405;29;20022;-78
2021/05/28 04:45:24;;;;;;;5.18;4.10;;;16.40;99.90;;;;;;4865432;29;20488;-79
2021/05/28 04:47:50;;;;;;;5.15;4.47;;;16.50;99.90;;;;;;4877435;29;20066;-79
2021/05/28 04:50:16;;;;;;;6.50;4.30;;;16.50;99.90;;;;;;4883760;29;20056;-79
2021/05/28 04:52:42;;;;;;;4.38;3.90;;;16.50;99.90;;;;;;4883935;29;20025;-79
2021/05/28 04:55:09;;;;;;;4.50;4.07;;;16.60;99.90;;;;;;4867094;29;20108;-79
2021/05/28 04:57:35;;;;;;;3.90;3.50;;;16.60;99.90;;;;;;4883992;29;20057;-79
2021/05/28 05:00:02;;;;;;;5.82;3.55;;;16.60;99.90;;;;;;4883857;29;20499;-79
2021/05/28 05:02:28;;;;;;;3.65;3.35;;;16.60;99.90;;;;;;4864791;29;20040;-79
2021/05/28 05:04:54;;;;;;;5.22;3.63;;;16.70;99.90;;;;;;4880809;29;20037;-79
2021/05/28 05:07:20;;;;;;;3.50;3.20;;;16.70;99.90;;;;;;4880896;29;20033;-79
2021/05/28 05:09:45;;;;;;;3.50;3.20;;;16.70;99.90;;;;;;4880807;29;20100;-79
2021/05/28 05:12:11;;;;;;;3.17;2.97;;;16.70;99.90;;;;;;4864117;29;20033;-79
2021/05/28 05:14:37;;;;;;;3.28;2.92;;;16.70;99.90;;;;;;4880940;29;20017;-79
2021/05/28 05:17:05;;;;;;;3.80;3.05;;;16.80;99.90;;;;;;4880840;29;20456;-79
2021/05/28 05:19:31;;;;;;;4.00;3.10;;;16.90;99.90;;;;;;4880857;29;20021;-80
2021/05/28 05:21:57;;;;;;;3.53;2.53;;;16.90;99.90;;;;;;4880569;29;20041;-80
2021/05/28 05:24:22;;;;;;;2.78;2.58;;;17.00;99.90;;;;;;4880885;29;20025;-79
2021/05/28 05:26:51;;;;;;;2.45;2.25;;;17.00;99.90;;;;;;4880672;29;20431;-80
2021/05/28 05:29:17;;;;;;;5.75;2.95;;;17.10;99.90;;;;;;4880722;29;20395;-79
2021/05/28 05:31:44;;;;;;;5.55;2.58;;;17.10;99.90;;;;;;4880507;29;20025;-79
2021/05/28 05:34:09;;;;;;;2.95;2.70;;;17.20;99.90;;;;;;4863798;29;20036;-79
2021/05/28 05:36:39;;;;;;;3.15;2.78;;;17.20;99.90;;;;;;4880315;29;20029;-79
2021/05/28 05:39:05;;;;;;;2.65;2.40;;;17.20;99.90;;;;;;4880236;29;20056;-79
2021/05/28 05:41:30;;;;;;;2.75;2.38;;;17.20;99.90;;;;;;4880492;29;20033;-79
2021/05/28 05:43:56;;;;;;;2.38;2.17;;;17.20;99.90;;;;;;4863518;29;20402;-79
2021/05/28 05:46:22;;;;;;;2.50;2.30;;;17.30;99.90;;;;;;4880289;29;20090;-79
2021/05/28 05:48:48;;;;;;;3.25;1.92;;;17.30;99.90;;;;;;4880235;29;20021;-79
2021/05/28 05:51:14;;;;;;;2.50;2.30;;;17.30;99.90;;;;;;4879887;29;20037;-79
2021/05/28 05:53:39;;;;;;;2.47;2.33;;;17.30;99.90;;;;;;4863316;29;20050;-79
2021/05/28 05:56:05;;;;;;;5.05;2.78;;;17.40;99.90;;;;;;4863229;29;20025;-79
2021/05/28 05:58:31;;;;;;;4.13;2.38;;;17.40;99.90;;;;;;4863138;29;20064;-79
2021/05/28 06:00:57;;;;;;;5.82;1.98;;;17.50;99.90;;;;;;4863274;29;20033;-79
2021/05/28 06:03:22;;;;;;;2.50;2.30;;;17.50;99.90;;;;;;4880176;29;20021;-79
2021/05/28 06:05:48;;;;;;;2.55;2.15;;;17.60;99.90;;;;;;4879721;29;20035;-79
2021/05/28 06:08:14;;;;;;;2.13;1.90;;;17.70;99.90;;;;;;4879867;29;20098;-79
2021/05/28 06:10:39;;;;;;;3.75;2.03;;;17.70;99.90;;;;;;4879676;29;20037;-80
2021/05/28 06:13:07;;;;;;;2.30;2.20;;;17.80;99.90;;;;;;4879652;29;20028;-79
2021/05/28 06:15:34;;;;;;;10.52;2.10;;;17.80;99.90;;;;;;4879653;29;20032;-79
2021/05/28 06:18:01;;;;;;;1.75;1.65;;;17.80;99.40;;;;;;4866380;29;20033;-80
2021/05/28 06:20:27;;;;;;;1.52;1.42;;;17.90;98.50;;;;;;4861042;29;20037;-79
2021/05/28 06:22:53;;;;;;;1.05;1.02;;;17.90;98.40;;;;;;4860828;29;20037;-79
2021/05/28 06:25:19;;;;;;;1.95;1.30;;;18.00;98.10;;;;;;4844398;29;20037;-79
2021/05/28 06:27:45;;;;;;;1.50;1.40;;;18.10;98.20;;;;;;4860828;29;20472;-79
2021/05/28 06:30:11;;;;;;;0.93;0.90;;;18.10;98.30;;;;;;4860941;29;20026;-79
2021/05/28 06:32:37;;;;;;;2.50;1.88;;;18.20;98.00;;;;;;4860723;29;20028;-79
2021/05/28 06:35:03;;;;;;;1.60;1.50;;;18.30;97.60;;;;;;4844158;29;20026;-79
2021/05/28 06:37:29;;;;;;;1.90;1.75;;;18.40;96.90;;;;;;4860688;29;20126;-79
2021/05/28 06:39:55;;;;;;;4.65;1.30;;;18.50;97.00;;;;;;4860320;29;20484;-79
2021/05/28 06:42:21;;;;;;;3.75;1.50;;;18.50;97.80;;;;;;4863741;29;20022;-79
2021/05/28 06:44:46;;;;;;;1.75;1.65;;;18.70;98.50;;;;;;4866400;29;20116;-79
2021/05/28 06:47:12;;;;;;;2.55;1.63;;;18.80;98.00;;;;;;4873210;29;20033;-79
2021/05/28 06:49:38;;;;;;;2.22;1.70;;;18.90;98.00;;;;;;4874030;29;20077;-79
2021/05/28 06:52:04;;;;;;;2.45;1.75;;;18.90;97.70;;;;;;4850330;29;20480;-79
2021/05/28 06:54:31;;;;;;;0.80;0.60;;;19.00;96.50;;;;;;4857892;29;20058;-79
2021/05/28 06:56:57;;;;;;;2.45;0.80;;;19.10;95.70;;;;;;4868966;29;20021;-79
2021/05/28 06:59:23;;;;;;;0.43;0.43;;;19.10;94.20;;;;;;4844810;29;20507;-79
2021/05/28 07:01:48;;;;;;;0.50;0.50;;;19.20;93.50;;;;;;4875866;29;20093;-79
2021/05/28 07:04:14;;;;;;;0.30;0.30;;;19.30;92.70;;;;;;4870329;29;20038;-74
2021/05/28 07:06:40;;;;;;;0.30;0.30;;;19.30;90.30;;;;;;4872396;29;20033;-74
2021/05/28 07:09:07;;;;;;;0.60;0.50;;;19.40;90.70;;;;;;4878579;29;20024;-74
2021/05/28 07:11:33;;;;;;;2.38;0.43;;;19.50;91.10;;;;;;4861646;29;20025;-74
2021/05/28 07:13:59;;;;;;;0.30;0.30;;;19.50;83.70;;;;;;4878529;29;20437;-73
2021/05/28 07:16:25;;;;;;;1.23;0.43;;;19.60;86.60;;;;;;4878437;29;20029;-74
2021/05/28 07:18:50;;;;;;;0.50;0.50;;;19.70;88.30;;;;;;4879182;29;20060;-73
2021/05/28 07:21:16;;;;;;;0.10;0.10;;;19.80;87.60;;;;;;4852954;29;20377;-74
2021/05/28 07:23:42;;;;;;;0.20;0.20;;;19.80;85.30;;;;;;4843951;29;20033;-74
2021/05/28 07:26:08;;;;;;;0.32;0.30;;;19.90;82.90;;;;;;4843358;29;20381;-73
2021/05/28 07:28:34;;;;;;;0.30;0.30;;;19.90;78.70;;;;;;4860710;29;20461;-74
2021/05/28 07:31:00;;;;;;;0.28;0.28;;;19.90;80.60;;;;;;4875542;29;20121;-74
2021/05/28 07:33:26;;;;;;;0.50;0.50;;;19.90;80.00;;;;;;4877735;29;20032;-74
2021/05/28 07:35:52;;;;;;;0.80;0.30;;;19.90;79.80;;;;;;4860662;29;20029;-74
2021/05/28 07:38:18;;;;;;;0.20;0.20;;;20.00;81.60;;;;;;4867555;29;20042;-74
2021/05/28 07:40:44;;;;;;;0.60;0.30;;;20.10;79.80;;;;;;4851822;29;20472;-74
2021/05/28 07:43:10;;;;;;;0.22;0.20;;;20.10;74.50;;;;;;4869177;29;20040;-74
2021/05/28 07:45:37;;;;;;;0.30;0.30;;;20.20;75.70;;;;;;4867741;29;20029;-74
2021/05/28 07:48:03;;;;;;;0.43;0.43;;;20.20;75.60;;;;;;4870005;29;20022;-74
2021/05/28 07:50:44;;;;;;;0.30;0.30;;;20.30;72.70;;;;;;4846523;29;20499;-74
2021/05/28 07:53:11;;;;;;;1.52;0.50;;;20.30;77.50;;;;;;4860311;29;20029;-74
2021/05/28 07:55:37;;;;;;;0.50;0.50;;;20.40;76.80;;;;;;4860138;29;20104;-74
2021/05/28 07:58:03;;;;;;;0.52;0.52;;;20.40;77.40;;;;;;4876524;29;20116;-73
2021/05/28 08:00:29;;;;;;;1.05;0.68;;;20.40;77.10;;;;;;4858772;29;20025;-73
2021/05/28 08:02:54;;;;;;;0.95;0.40;;;20.50;81.10;;;;;;4877889;29;20032;-73
2021/05/28 08:05:20;;;;;;;0.57;0.50;;;20.40;74.40;;;;;;4878030;29;20029;-73
2021/05/28 08:07:48;;;;;;;0.30;0.30;;;20.50;69.90;;;;;;4877713;29;20056;-74
2021/05/28 08:10:14;;;;;;;0.30;0.30;;;20.50;76.30;;;;;;4860991;29;20045;-73
2021/05/28 08:12:40;;;;;;;0.60;0.30;;;20.50;76.30;;;;;;4877858;29;20021;-73
2021/05/28 08:15:07;;;;;;;0.30;0.30;;;20.50;75.60;;;;;;4858113;29;20022;-74
2021/05/28 08:17:33;;;;;;;0.40;0.40;;;20.60;78.50;;;;;;4869663;29;20018;-73
2021/05/28 08:19:58;;;;;;;0.55;0.55;;;20.70;72.80;;;;;;4857282;29;20036;-73
2021/05/28 08:22:24;;;;;;;1.15;0.35;;;20.60;74.80;;;;;;4869086;29;20029;-73
2021/05/28 08:24:50;;;;;;;0.45;0.40;;;20.60;76.50;;;;;;4850390;29;20060;-73
2021/05/28 08:27:17;;;;;;;0.93;0.52;;;20.60;77.00;;;;;;4852328;29;20116;-73
2021/05/28 08:29:43;;;;;;;0.80;0.47;;;20.60;71.90;;;;;;4859027;29;20452;-73
2021/05/28 08:32:09;;;;;;;0.43;0.30;;;20.60;70.70;;;;;;4877284;29;20081;-74
2021/05/28 08:34:35;;;;;;;0.47;0.40;;;20.50;71.50;;;;;;4877155;29;20021;-73
2021/05/28 08:37:01;;;;;;;0.50;0.50;;;20.60;71.50;;;;;;4877557;29;20029;-74
2021/05/28 08:39:26;;;;;;;0.40;0.40;;;20.50;69.90;;;;;;4880793;29;20128;-73
2021/05/28 08:41:54;;;;;;;0.50;0.38;;;20.50;70.00;;;;;;4880772;29;20058;-74
2021/05/28 08:44:23;;;;;;;1.55;0.57;;;20.60;72.20;;;;;;4880785;29;20036;-74
2021/05/28 08:46:53;;;;;;;0.65;0.32;;;20.50;70.50;;;;;;4881050;29;20036;-74
2021/05/28 08:49:20;;;;;;;0.50;0.50;;;20.60;73.50;;;;;;4875122;29;20535;-73
2021/05/28 08:51:46;;;;;;;3.92;0.30;;;20.60;74.00;;;;;;4848732;29;20032;-74
2021/05/28 08:54:12;;;;;;;0.65;0.50;;;20.50;68.70;;;;;;4854569;29;20412;-73
2021/05/28 08:56:38;;;;;;;0.57;0.40;;;20.50;69.20;;;;;;4853950;29;20435;-73
2021/05/28 08:59:05;;;;;;;1.20;0.50;;;20.60;70.00;;;;;;4878235;29;20108;-73
2021/05/28 09:01:31;;;;;;;0.40;0.40;;;20.70;72.30;;;;;;4881740;29;20025;-74
2021/05/28 09:03:59;;;;;;;0.50;0.50;;;20.80;74.30;;;;;;4881605;29;20566;-73
2021/05/28 09:06:35;;;;;;;1.70;0.82;;;20.70;74.80;;;;;;4881388;29;20112;-72
2021/05/28 09:09:14;;;;;;;0.43;0.43;;;20.70;79.10;;;;;;4881225;29;20425;-72
2021/05/28 09:12:01;;;;;;;2.45;0.50;;;20.60;74.60;;;;;;4881633;29;20422;-72
2021/05/28 09:14:45;;;;;;;0.40;0.40;;;20.50;72.00;;;;;;4861785;29;20025;-72
2021/05/28 09:17:14;;;;;;;0.43;0.43;;;20.50;69.10;;;;;;4881318;29;20033;-72
2021/05/28 09:19:49;;;;;;;2.42;0.50;;;20.50;76.70;;;;;;4881385;29;20025;-72
2021/05/28 09:22:15;;;;;;;1.10;0.47;;;20.60;77.40;;;;;;4881377;29;20039;-72
2021/05/28 09:24:43;;;;;;;0.95;0.60;;;20.60;78.20;;;;;;4881089;29;20032;-72
2021/05/28 09:27:36;;;;;;;8.90;1.00;;;20.60;77.20;;;;;;4881284;29;20040;-72
2021/05/28 09:30:12;;;;;;;1.30;0.32;;;20.70;76.20;;;;;;4881092;29;20052;-72
2021/05/28 09:32:43;;;;;;;5.25;0.52;;;20.70;74.10;;;;;;4881030;29;20017;-74
2021/05/28 09:35:11;;;;;;;1.08;0.63;;;20.80;74.70;;;;;;4881115;29;20384;-74
2021/05/28 09:37:47;;;;;;;3.53;0.60;;;20.80;74.20;;;;;;4880701;29;20051;-73
2021/05/28 09:40:22;;;;;;;0.30;0.30;;;20.70;74.40;;;;;;4880903;29;20033;-74
2021/05/28 09:42:55;;;;;;;0.40;0.30;;;20.80;69.90;;;;;;4880941;29;20032;-74
2021/05/28 09:45:30;;;;;;;0.30;0.30;;;20.70;66.60;;;;;;4863723;29;20044;-72
2021/05/28 09:48:03;;;;;;;0.65;0.43;;;20.80;70.80;;;;;;4880035;29;20101;-74
2021/05/28 09:50:34;;;;;;;0.30;0.30;;;21.10;70.80;;;;;;4880372;29;20021;-74
2021/05/28 09:53:04;;;;;;;1.63;0.63;;;21.20;68.70;;;;;;4863475;29;20090;-74
2021/05/28 09:55:36;;;;;;;0.35;0.35;;;21.40;68.40;;;;;;4880362;29;20017;-74
2021/05/28 09:58:02;;;;;;;0.20;0.20;;;21.40;64.40;;;;;;4880059;29;20029;-74
2021/05/28 10:00:32;;;;;;;2.60;0.32;;;21.40;66.20;;;;;;4879911;29;20037;-75
2021/05/28 10:03:23;;;;;;;0.77;0.50;;;21.40;72.50;;;;;;4863917;29;20089;-74
2021/05/28 10:05:57;;;;;;;1.65;0.50;;;21.40;70.40;;;;;;4880634;29;20125;-74
2021/05/28 10:08:25;;;;;;;0.40;0.30;;;21.40;71.30;;;;;;4863625;29;20480;-74
2021/05/28 10:10:53;;;;;;;0.40;0.40;;;21.60;73.40;;;;;;4880028;29;20625;-74
2021/05/28 10:13:21;;;;;;;0.40;0.40;;;21.70;70.30;;;;;;4863646;29;20070;-74
2021/05/28 10:15:52;;;;;;;0.28;0.28;;;21.80;66.50;;;;;;4862818;29;20028;-74
2021/05/28 10:18:20;;;;;;;0.50;0.50;;;22.00;68.70;;;;;;4862457;29;20033;-74
2021/05/28 10:20:54;;;;;;;0.90;0.50;;;22.20;64.10;;;;;;4878949;29;20033;-74
2021/05/28 10:23:22;;;;;;;0.70;0.47;;;22.20;66.90;;;;;;4879204;29;20107;-74
2021/05/28 10:25:53;;;;;;;0.65;0.60;;;22.30;62.70;;;;;;4862401;29;20029;-74
2021/05/28 10:28:21;;;;;;;0.15;0.15;;;22.20;61.70;;;;;;4862059;29;20411;-74
2021/05/28 10:30:48;;;;;;;1.02;0.40;;;22.20;60.60;;;;;;4878847;29;20128;-74
2021/05/28 10:33:17;;;;;;;2.50;0.90;;;22.30;65.00;;;;;;4862192;29;20396;-74
2021/05/28 10:35:47;;;;;;;0.50;0.50;;;22.30;64.40;;;;;;4879023;29;20061;-74
2021/05/28 10:38:30;;;;;;;0.43;0.43;;;22.60;66.20;;;;;;4878882;29;20061;-74
2021/05/28 10:41:19;;;;;;;0.60;0.50;;;22.70;64.80;;;;;;4878762;29;20484;-74
2021/05/28 10:43:51;;;;;;;0.50;0.40;;;22.80;60.50;;;;;;4878804;29;20025;-74
2021/05/28 10:46:18;;;;;;;0.50;0.50;;;22.80;60.70;;;;;;4878716;29;20033;-74
2021/05/28 10:48:43;;;;;;;2.45;0.57;;;22.90;65.80;;;;;;4878612;29;20070;-74
2021/05/28 10:51:17;;;;;;;0.55;0.55;;;23.00;64.70;;;;;;4878380;29;20053;-74
2021/05/28 10:53:52;;;;;;;0.98;0.50;;;23.10;63.30;;;;;;4861803;29;20072;-74
2021/05/28 10:56:21;;;;;;;0.90;0.50;;;23.20;63.60;;;;;;4861748;29;20041;-74
2021/05/28 10:58:52;;;;;;;1.00;0.50;;;23.30;63.60;;;;;;4861534;29;20076;-74
2021/05/28 11:04:04;;;;;;;1.73;0.70;;;23.40;59.30;;;;;;4878537;29;20460;-74
2021/05/28 11:06:31;;;;;;;1.17;0.60;;;23.30;56.20;;;;;;4878413;29;20025;-74
2021/05/28 11:09:06;;;;;;;0.45;0.45;;;23.40;58.90;;;;;;4861870;29;20483;-74
2021/05/28 11:11:44;;;;;;;0.60;0.60;;;23.60;59.40;;;;;;4863804;29;20473;-73
2021/05/28 11:14:11;;;;;;;0.50;0.50;;;23.80;60.30;;;;;;4859651;29;20434;-74
2021/05/28 11:16:52;;;;;;;2.40;0.70;;;23.80;62.50;;;;;;4859577;29;20076;-74
2021/05/28 11:19:24;;;;;;;0.50;0.50;;;23.90;60.00;;;;;;4859191;29;20128;-74
2021/05/28 11:22:14;;;;;;;0.50;0.50;;;23.90;59.80;;;;;;4878206;29;20047;-74
2021/05/28 11:24:47;;;;;;;0.82;0.50;;;24.00;63.80;;;;;;4877962;29;20028;-74
2021/05/28 11:27:19;;;;;;;0.70;0.65;;;24.10;59.10;;;;;;4861134;29;20127;-73
2021/05/28 11:29:45;;;;;;;;;;;24.20;62.40;;;;;;4878316;29;20027;-73
2021/05/28 11:32:58;;;;;;;0.68;0.50;;;24.20;58.80;;;;;;4878051;29;19908;-73
2021/05/28 11:35:27;;;;;;;2.40;0.98;;;24.20;59.20;;;;;;4869535;29;20045;-73
2021/05/28 11:38:01;;;;;;;0.80;0.60;;;24.30;59.50;;;;;;4861016;29;20060;-73
2021/05/28 11:40:31;;;;;;;0.85;0.52;;;24.30;59.90;;;;;;4861188;29;20098;-73
2021/05/28 11:43:18;;;;;;;1.48;0.60;;;24.60;64.20;;;;;;4878005;29;20115;-73
2021/05/28 11:45:50;;;;;;;0.60;0.60;;;24.70;59.90;;;;;;4861146;29;20029;-73
2021/05/28 11:48:17;;;;;;;;;;;24.80;58.30;;;;;;4878278;29;20470;-73
2021/05/28 11:50:51;;;;;;;0.50;0.50;;;24.70;60.80;;;;;;4877751;29;19914;-73
2021/05/28 11:53:18;;;;;;;2.22;0.70;;;24.80;58.10;;;;;;4877940;29;20163;-73
2021/05/28 11:55:53;;;;;;;0.40;0.40;;;25.00;62.20;;;;;;4877793;29;20461;-74
2021/05/28 11:58:22;;;;;;;1.65;0.60;;;25.20;62.30;;;;;;4877845;29;20112;-73
2021/05/28 12:00:50;;;;;;;2.33;0.77;;;25.40;62.80;;;;;;4877571;29;20025;-73
2021/05/28 12:03:16;;;;;;;2.42;1.08;;;25.30;58.60;;;;;;4877620;29;20029;-73
2021/05/28 12:05:43;;;;;;;1.23;0.70;;;25.10;55.40;;;;;;4861004;29;20441;-72
2021/05/28 12:08:15;;;;;;;1.23;0.60;;;25.20;58.30;;;;;;4877744;29;20108;-73
2021/05/28 12:11:01;;;;;;;;;;;25.40;61.50;;;;;;4861177;29;20120;-73
2021/05/28 12:13:35;;;;;;;0.93;0.80;;;25.60;60.00;;;;;;4880877;29;20308;-73
2021/05/28 12:16:03;;;;;;;1.13;0.80;;;25.60;59.10;;;;;;4881355;29;20017;-73
2021/05/28 12:18:36;;;;;;;0.70;0.70;;;25.70;60.70;;;;;;4881542;29;20037;-73
2021/05/28 12:21:08;;;;;;;2.70;0.82;;;25.70;58.60;;;;;;4881140;29;20033;-73
2021/05/28 12:23:37;;;;;;;;;;;25.70;59.40;;;;;;4881668;29;20013;-73
2021/05/28 12:26:08;;;;;;;1.08;1.08;;;25.90;58.10;;;;;;4881388;29;20003;-73
2021/05/28 12:28:37;;;;;;;3.47;0.95;;;25.90;57.00;;;;;;4881232;29;20085;-71
2021/05/28 12:31:12;;;;;;;1.33;1.23;;;26.00;56.20;;;;;;4880920;29;20033;-73
2021/05/28 12:33:49;;;;;;;1.17;0.90;;;26.10;60.20;;;;;;4864312;29;20037;-73
2021/05/28 12:36:15;;;;;;;0.93;0.93;;;26.20;61.60;;;;;;4881121;29;20017;-73
2021/05/28 12:38:42;;;;;;;1.00;1.00;;;26.00;59.00;;;;;;4880879;29;20057;-73
2021/05/28 12:41:10;;;;;;;0.90;0.90;;;25.80;60.70;;;;;;4881094;29;20483;-72
2021/05/28 12:43:41;;;;;;;2.30;1.40;;;25.40;60.30;;;;;;4881057;29;20507;-73
2021/05/28 12:46:18;;;;;;;2.60;1.45;;;25.10;61.30;;;;;;4864056;29;20057;-74
2021/05/28 12:48:47;;;;;;;1.80;1.40;;;25.20;62.40;;;;;;4880728;29;20036;-73
2021/05/28 12:51:14;;;;;;;2.33;1.35;;;25.60;62.20;;;;;;4880902;29;20531;-73
2021/05/28 12:53:44;;;;;;;1.88;1.50;;;25.80;61.10;;;;;;4880792;29;20021;-73
2021/05/28 12:56:17;;;;;;;1.77;1.50;;;25.90;62.60;;;;;;4880745;29;20033;-73